createdAt,value
2023-04-01T00:00:26.887Z,0.00
2023-04-01T00:01:26.901Z,0.00
2023-04-01T00:02:26.968Z,0.00
2023-04-01T00:03:27.068Z,0.00
2023-04-01T00:04:26.993Z,0.00
2023-04-01T00:05:26.933Z,0.00
2023-04-01T00:06:26.976Z,0.00
2023-04-01T00:07:26.947Z,0.00
2023-04-01T00:08:26.966Z,0.00
2023-04-01T00:09:26.945Z,0.00
2023-04-01T00:10:26.937Z,0.00
2023-04-01T00:11:26.959Z,0.00
2023-04-01T00:12:26.984Z,0.00
2023-04-01T00:13:27.010Z,0.00
2023-04-01T00:14:26.991Z,0.00
2023-04-01T00:15:27.249Z,0.00
2023-04-01T00:16:27.041Z,0.00
2023-04-01T00:17:27.060Z,0.00
2023-04-01T00:18:27.058Z,0.00
2023-04-01T00:19:27.084Z,0.00
2023-04-01T00:20:27.096Z,0.00
2023-04-01T00:21:27.116Z,0.00
2023-04-01T00:22:27.157Z,0.00
2023-04-01T00:23:27.129Z,0.00
2023-04-01T00:24:27.126Z,0.00
2023-04-01T00:25:27.142Z,0.00
2023-04-01T00:26:27.184Z,0.00
2023-04-01T00:27:27.190Z,0.00
2023-04-01T00:28:27.231Z,0.00
2023-04-01T00:29:27.240Z,0.00
2023-04-01T00:30:27.256Z,0.00
2023-04-01T00:31:27.397Z,0.00
2023-04-01T00:32:27.333Z,0.00
2023-04-01T00:33:27.288Z,0.00
2023-04-01T00:34:27.278Z,0.00
2023-04-01T00:35:27.264Z,0.00
2023-04-01T00:36:27.315Z,0.00
2023-04-01T00:37:27.297Z,0.00
2023-04-01T00:38:27.342Z,0.00
2023-04-01T00:39:27.322Z,0.00
2023-04-01T00:40:27.310Z,0.00
2023-04-01T00:41:27.329Z,0.00
2023-04-01T00:42:27.355Z,0.00
2023-04-01T00:43:27.371Z,0.00
2023-04-01T00:44:27.397Z,0.00
2023-04-01T00:45:27.410Z,0.00
2023-04-01T00:46:27.483Z,0.00
2023-04-01T00:47:27.482Z,0.00
2023-04-01T00:48:27.470Z,0.00
2023-04-01T00:49:27.487Z,0.00
2023-04-01T00:50:27.503Z,0.00
2023-04-01T00:51:27.542Z,0.00
2023-04-01T00:52:27.522Z,0.00
2023-04-01T00:53:27.554Z,0.00
2023-04-01T00:54:27.594Z,0.00
2023-04-01T00:55:27.568Z,0.00
2023-04-01T00:56:27.611Z,0.00
2023-04-01T00:57:27.661Z,0.00
2023-04-01T00:58:27.616Z,0.00
2023-04-01T00:59:27.642Z,0.00
2023-04-01T01:00:27.664Z,0.00
2023-04-01T01:01:27.772Z,0.00
2023-04-01T01:02:27.758Z,0.00
2023-04-01T01:03:27.849Z,0.00
2023-04-01T01:04:27.710Z,0.00
2023-04-01T01:05:28.037Z,0.00
2023-04-01T01:06:27.777Z,0.00
2023-04-01T01:07:27.743Z,0.00
2023-04-01T01:08:27.774Z,0.00
2023-04-01T01:09:27.797Z,0.00
2023-04-01T01:10:27.855Z,0.00
2023-04-01T01:11:28.025Z,0.00
2023-04-01T01:12:27.826Z,0.00
2023-04-01T01:13:27.862Z,0.00
2023-04-01T01:14:27.840Z,0.00
2023-04-01T01:15:27.886Z,0.00
2023-04-01T01:16:27.885Z,0.00
2023-04-01T01:17:27.933Z,0.00
2023-04-01T01:18:27.912Z,0.00
2023-04-01T01:19:27.917Z,0.00
2023-04-01T01:20:27.944Z,0.00
2023-04-01T01:21:27.953Z,0.00
2023-04-01T01:22:27.981Z,0.00
2023-04-01T01:23:27.969Z,0.00
2023-04-01T01:24:27.956Z,0.00
2023-04-01T01:25:27.980Z,0.00
2023-04-01T01:26:28.034Z,0.00
2023-04-01T01:27:28.005Z,0.00
2023-04-01T01:28:28.021Z,0.00
2023-04-01T01:29:28.047Z,0.00
2023-04-01T01:30:28.018Z,0.00
2023-04-01T01:31:28.092Z,0.00
2023-04-01T01:32:28.105Z,0.00
2023-04-01T01:33:28.041Z,0.00
2023-04-01T01:34:28.070Z,0.00
2023-04-01T01:35:28.047Z,0.00
2023-04-01T01:36:28.107Z,0.00
2023-04-01T01:37:28.105Z,0.00
2023-04-01T01:38:28.124Z,0.00
2023-04-01T01:39:28.109Z,0.00
2023-04-01T01:40:28.085Z,0.00
2023-04-01T01:41:28.130Z,0.00
2023-04-01T01:42:28.167Z,0.00
2023-04-01T01:43:28.151Z,0.00
2023-04-01T01:44:28.131Z,0.00
2023-04-01T01:45:28.125Z,0.00
2023-04-01T01:46:28.125Z,0.00
2023-04-01T01:47:28.150Z,0.00
2023-04-01T01:48:28.139Z,0.00
2023-04-01T01:49:28.157Z,0.00
2023-04-01T01:50:28.187Z,0.00
2023-04-01T01:51:28.229Z,0.00
2023-04-01T01:52:28.195Z,0.00
2023-04-01T01:53:28.216Z,0.00
2023-04-01T01:54:28.243Z,0.00
2023-04-01T01:55:28.275Z,0.00
2023-04-01T01:56:28.254Z,0.00
2023-04-01T01:57:28.319Z,0.00
2023-04-01T01:58:28.297Z,0.00
2023-04-01T01:59:28.271Z,0.00
2023-04-01T02:00:28.325Z,0.00
2023-04-01T02:01:28.333Z,0.00
2023-04-01T02:02:28.366Z,0.00
2023-04-01T02:03:28.344Z,0.00
2023-04-01T02:04:28.453Z,0.00
2023-04-01T02:05:28.374Z,0.00
2023-04-01T02:06:28.395Z,0.00
2023-04-01T02:07:28.410Z,0.00
2023-04-01T02:08:28.427Z,0.00
2023-04-01T02:09:28.445Z,0.00
2023-04-01T02:10:28.476Z,0.00
2023-04-01T02:11:28.450Z,0.00
2023-04-01T02:12:28.466Z,0.00
2023-04-01T02:13:28.483Z,0.00
2023-04-01T02:14:28.526Z,0.00
2023-04-01T02:15:28.536Z,0.00
2023-04-01T02:16:28.542Z,0.00
2023-04-01T02:17:28.544Z,0.00
2023-04-01T02:18:28.513Z,0.00
2023-04-01T02:19:28.542Z,0.00
2023-04-01T02:20:28.560Z,0.00
2023-04-01T02:21:28.589Z,0.00
2023-04-01T02:22:28.615Z,0.00
2023-04-01T02:23:28.600Z,0.00
2023-04-01T02:24:28.625Z,0.00
2023-04-01T02:25:28.646Z,0.00
2023-04-01T02:26:28.668Z,0.00
2023-04-01T02:27:28.689Z,0.00
2023-04-01T02:28:28.712Z,0.00
2023-04-01T02:29:28.788Z,0.00
2023-04-01T02:30:28.770Z,0.00
2023-04-01T02:31:28.783Z,0.00
2023-04-01T02:32:28.781Z,0.00
2023-04-01T02:33:28.770Z,0.00
2023-04-01T02:34:28.782Z,0.00
2023-04-01T02:35:28.796Z,0.00
2023-04-01T02:36:28.872Z,0.00
2023-04-01T02:37:28.863Z,0.00
2023-04-01T02:38:28.876Z,0.00
2023-04-01T02:39:28.902Z,0.00
2023-04-01T02:40:28.921Z,0.00
2023-04-01T02:41:28.951Z,0.00
2023-04-01T02:42:28.978Z,0.00
2023-04-01T02:43:28.996Z,0.00
2023-04-01T02:44:29.012Z,0.00
2023-04-01T02:45:29.028Z,0.00
2023-04-01T02:46:29.119Z,0.00
2023-04-01T02:47:29.068Z,0.00
2023-04-01T02:48:29.055Z,0.00
2023-04-01T02:49:29.072Z,0.00
2023-04-01T02:50:29.096Z,0.00
2023-04-01T02:51:29.414Z,0.00
2023-04-01T02:52:29.113Z,0.00
2023-04-01T02:53:29.138Z,0.00
2023-04-01T02:54:29.120Z,0.00
2023-04-01T02:55:29.138Z,0.00
2023-04-01T02:56:29.151Z,0.00
2023-04-01T02:57:29.334Z,0.00
2023-04-01T02:58:29.204Z,0.00
2023-04-01T02:59:29.217Z,0.00
2023-04-01T03:00:29.248Z,0.00
2023-04-01T03:01:29.367Z,0.00
2023-04-01T03:02:29.423Z,0.00
2023-04-01T03:03:29.320Z,0.00
2023-04-01T03:04:29.559Z,0.00
2023-04-01T03:05:29.361Z,0.00
2023-04-01T03:06:29.371Z,0.00
2023-04-01T03:07:29.392Z,0.00
2023-04-01T03:08:29.377Z,0.00
2023-04-01T03:09:29.377Z,0.00
2023-04-01T03:10:29.395Z,0.00
2023-04-01T03:11:29.415Z,0.00
2023-04-01T03:12:29.439Z,0.00
2023-04-01T03:13:29.416Z,0.00
2023-04-01T03:14:29.451Z,0.00
2023-04-01T03:15:29.421Z,0.00
2023-04-01T03:16:29.491Z,0.00
2023-04-01T03:17:29.546Z,0.00
2023-04-01T03:18:29.484Z,0.00
2023-04-01T03:19:29.456Z,0.00
2023-04-01T03:20:29.505Z,0.00
2023-04-01T03:21:29.455Z,0.00
2023-04-01T03:22:29.477Z,0.00
2023-04-01T03:23:29.505Z,0.00
2023-04-01T03:24:29.528Z,0.00
2023-04-01T03:25:29.550Z,0.00
2023-04-01T03:26:29.567Z,0.00
2023-04-01T03:27:29.580Z,0.00
2023-04-01T03:28:29.606Z,0.00
2023-04-01T03:29:29.640Z,0.00
2023-04-01T03:30:29.779Z,0.00
2023-04-01T03:31:29.760Z,0.00
2023-04-01T03:32:29.694Z,0.00
2023-04-01T03:33:29.693Z,0.00
2023-04-01T03:34:29.742Z,0.00
2023-04-01T03:35:29.725Z,0.00
2023-04-01T03:36:29.726Z,0.00
2023-04-01T03:37:29.854Z,0.00
2023-04-01T03:38:29.738Z,0.00
2023-04-01T03:39:29.769Z,0.00
2023-04-01T03:40:29.787Z,0.00
2023-04-01T03:41:29.805Z,0.00
2023-04-01T03:42:29.858Z,0.00
2023-04-01T03:43:29.869Z,0.00
2023-04-01T03:44:29.902Z,0.00
2023-04-01T03:45:30.322Z,0.00
2023-04-01T03:46:29.936Z,0.00
2023-04-01T03:47:29.975Z,0.00
2023-04-01T03:48:29.919Z,0.00
2023-04-01T03:49:29.906Z,0.00
2023-04-01T03:50:31.150Z,0.00
2023-04-01T03:51:29.921Z,0.00
2023-04-01T03:52:29.941Z,0.00
2023-04-01T03:53:29.936Z,0.00
2023-04-01T03:54:29.957Z,0.00
2023-04-01T03:55:30.019Z,0.00
2023-04-01T03:56:30.008Z,0.00
2023-04-01T03:57:30.080Z,0.00
2023-04-01T03:58:30.061Z,0.00
2023-04-01T03:59:30.094Z,0.00
2023-04-01T04:00:30.075Z,0.00
2023-04-01T04:01:30.093Z,0.00
2023-04-01T04:02:30.224Z,0.00
2023-04-01T04:03:30.239Z,0.00
2023-04-01T04:04:30.149Z,0.00
2023-04-01T04:05:30.141Z,0.00
2023-04-01T04:06:30.180Z,0.00
2023-04-01T04:07:30.150Z,0.00
2023-04-01T04:08:30.179Z,0.00
2023-04-01T04:09:30.200Z,0.00
2023-04-01T04:10:30.244Z,0.00
2023-04-01T04:11:30.214Z,0.00
2023-04-01T04:12:30.241Z,0.00
2023-04-01T04:13:30.256Z,0.00
2023-04-01T04:14:30.248Z,0.00
2023-04-01T04:15:30.498Z,0.00
2023-04-01T04:16:30.353Z,0.00
2023-04-01T04:17:30.413Z,0.00
2023-04-01T04:18:30.370Z,0.00
2023-04-01T04:19:30.346Z,0.00
2023-04-01T04:20:30.314Z,0.00
2023-04-01T04:21:30.341Z,0.00
2023-04-01T04:22:30.382Z,0.00
2023-04-01T04:23:30.365Z,0.00
2023-04-01T04:24:30.392Z,0.00
2023-04-01T04:25:30.725Z,0.00
2023-04-01T04:26:30.413Z,0.00
2023-04-01T04:27:30.425Z,0.00
2023-04-01T04:28:30.455Z,0.00
2023-04-01T04:29:30.473Z,0.00
2023-04-01T04:30:30.496Z,0.00
2023-04-01T04:31:30.633Z,0.00
2023-04-01T04:32:31.277Z,0.00
2023-04-01T04:33:30.554Z,1.00
2023-04-01T04:34:30.538Z,1.00
2023-04-01T04:35:30.795Z,1.00
2023-04-01T04:36:30.566Z,1.00
2023-04-01T04:37:30.551Z,1.00
2023-04-01T04:38:30.583Z,1.00
2023-04-01T04:39:30.546Z,1.00
2023-04-01T04:40:30.570Z,2.00
2023-04-01T04:41:30.595Z,2.00
2023-04-01T04:42:30.649Z,3.00
2023-04-01T04:43:30.624Z,5.00
2023-04-01T04:44:30.644Z,7.00
2023-04-01T04:45:30.939Z,8.00
2023-04-01T04:46:30.713Z,10.00
2023-04-01T04:47:30.691Z,10.00
2023-04-01T04:48:30.667Z,11.00
2023-04-01T04:49:30.679Z,12.00
2023-04-01T04:50:30.705Z,14.00
2023-04-01T04:51:30.729Z,14.00
2023-04-01T04:52:30.704Z,18.00
2023-04-01T04:53:30.732Z,21.00
2023-04-01T04:54:30.758Z,26.00
2023-04-01T04:55:31.173Z,27.00
2023-04-01T04:56:31.039Z,29.00
2023-04-01T04:57:30.780Z,26.00
2023-04-01T04:58:30.736Z,28.00
2023-04-01T04:59:30.765Z,38.00
2023-04-01T05:00:30.788Z,45.00
2023-04-01T05:01:30.948Z,57.00
2023-04-01T05:02:30.872Z,70.00
2023-04-01T05:03:30.904Z,79.00
2023-04-01T05:04:30.828Z,85.00
2023-04-01T05:05:31.235Z,93.00
2023-04-01T05:06:30.879Z,94.00
2023-04-01T05:07:30.898Z,89.00
2023-04-01T05:08:30.921Z,89.00
2023-04-01T05:09:30.942Z,106.00
2023-04-01T05:10:31.002Z,117.00
2023-04-01T05:11:31.016Z,129.00
2023-04-01T05:12:31.012Z,128.00
2023-04-01T05:13:31.035Z,124.00
2023-04-01T05:14:31.024Z,120.00
2023-04-01T05:15:31.364Z,119.00
2023-04-01T05:16:31.078Z,134.00
2023-04-01T05:17:31.064Z,154.00
2023-04-01T05:18:31.052Z,147.00
2023-04-01T05:19:31.090Z,149.00
2023-04-01T05:20:31.144Z,178.00
2023-04-01T05:21:31.136Z,221.00
2023-04-01T05:22:31.114Z,256.00
2023-04-01T05:23:31.098Z,277.00
2023-04-01T05:24:31.101Z,286.00
2023-04-01T05:25:31.259Z,295.00
2023-04-01T05:26:31.131Z,303.00
2023-04-01T05:27:31.117Z,317.00
2023-04-01T05:28:31.139Z,332.00
2023-04-01T05:29:31.167Z,330.00
2023-04-01T05:30:31.165Z,326.00
2023-04-01T05:31:31.245Z,327.00
2023-04-01T05:32:31.198Z,337.00
2023-04-01T05:33:31.187Z,334.00
2023-04-01T05:34:31.167Z,336.00
2023-04-01T05:35:31.515Z,351.00
2023-04-01T05:36:31.231Z,368.00
2023-04-01T05:37:31.222Z,366.00
2023-04-01T05:38:31.265Z,376.00
2023-04-01T05:39:31.287Z,425.00
2023-04-01T05:40:31.319Z,461.00
2023-04-01T05:41:31.306Z,491.00
2023-04-01T05:42:31.362Z,530.00
2023-04-01T05:43:31.361Z,568.00
2023-04-01T05:44:31.337Z,619.00
2023-04-01T05:45:31.898Z,635.00
2023-04-01T05:46:31.446Z,672.00
2023-04-01T05:47:31.424Z,694.00
2023-04-01T05:48:31.415Z,705.00
2023-04-01T05:49:31.431Z,715.00
2023-04-01T05:50:31.424Z,709.00
2023-04-01T05:51:31.413Z,707.00
2023-04-01T05:52:31.404Z,707.00
2023-04-01T05:53:31.673Z,702.00
2023-04-01T05:54:31.434Z,700.00
2023-04-01T05:55:31.846Z,692.00
2023-04-01T05:56:31.411Z,678.00
2023-04-01T05:57:31.475Z,718.00
2023-04-01T05:58:31.487Z,718.00
2023-04-01T05:59:31.700Z,731.00
2023-04-01T06:00:31.507Z,734.00
2023-04-01T06:01:31.485Z,709.00
2023-04-01T06:02:31.557Z,688.00
2023-04-01T06:03:32.303Z,728.00
2023-04-01T06:04:31.558Z,709.00
2023-04-01T06:05:31.732Z,728.00
2023-04-01T06:06:31.557Z,750.00
2023-04-01T06:07:31.580Z,757.00
2023-04-01T06:08:31.606Z,742.00
2023-04-01T06:09:31.612Z,768.00
2023-04-01T06:10:31.598Z,805.00
2023-04-01T06:11:31.639Z,776.00
2023-04-01T06:12:31.637Z,760.00
2023-04-01T06:13:31.691Z,788.00
2023-04-01T06:14:31.697Z,959.00
2023-04-01T06:15:31.964Z,1069.00
2023-04-01T06:16:31.800Z,1104.00
2023-04-01T06:17:31.756Z,1044.00
2023-04-01T06:18:31.768Z,1058.00
2023-04-01T06:19:31.761Z,1156.00
2023-04-01T06:20:31.749Z,1189.00
2023-04-01T06:21:31.729Z,1248.00
2023-04-01T06:22:31.787Z,1229.00
2023-04-01T06:23:31.817Z,1311.00
2023-04-01T06:24:31.803Z,1212.00
2023-04-01T06:25:31.982Z,1160.00
2023-04-01T06:26:31.817Z,1040.00
2023-04-01T06:27:31.808Z,1106.00
2023-04-01T06:28:31.801Z,1334.00
2023-04-01T06:29:31.805Z,1245.00
2023-04-01T06:30:31.836Z,1055.00
2023-04-01T06:31:31.858Z,1151.00
2023-04-01T06:32:31.874Z,1151.00
2023-04-01T06:33:31.852Z,1209.00
2023-04-01T06:34:31.844Z,1190.00
2023-04-01T06:35:32.275Z,1169.00
2023-04-01T06:36:31.889Z,1220.00
2023-04-01T06:37:31.879Z,1289.00
2023-04-01T06:38:31.874Z,1335.00
2023-04-01T06:39:31.863Z,1335.00
2023-04-01T06:40:31.848Z,1452.00
2023-04-01T06:41:31.883Z,1613.00
2023-04-01T06:42:31.872Z,1617.00
2023-04-01T06:43:31.856Z,1722.00
2023-04-01T06:44:31.898Z,1832.00
2023-04-01T06:45:32.218Z,2035.00
2023-04-01T06:46:31.953Z,1816.00
2023-04-01T06:47:32.302Z,1985.00
2023-04-01T06:48:31.923Z,2103.00
2023-04-01T06:49:31.929Z,2205.00
2023-04-01T06:50:31.926Z,2084.00
2023-04-01T06:51:31.950Z,2075.00
2023-04-01T06:52:31.976Z,2029.00
2023-04-01T06:53:32.010Z,2152.00
2023-04-01T06:54:32.052Z,2395.00
2023-04-01T06:55:32.293Z,2116.00
2023-04-01T06:56:32.097Z,2131.00
2023-04-01T06:57:32.285Z,2128.00
2023-04-01T06:58:32.116Z,2333.00
2023-04-01T06:59:32.120Z,2442.00
2023-04-01T07:00:32.112Z,2266.00
2023-04-01T07:01:32.381Z,2211.00
2023-04-01T07:02:32.188Z,2257.00
2023-04-01T07:03:32.135Z,2485.00
2023-04-01T07:04:32.244Z,2567.00
2023-04-01T07:05:32.298Z,2423.00
2023-04-01T07:06:32.153Z,2294.00
2023-04-01T07:07:32.179Z,2368.00
2023-04-01T07:08:32.203Z,2352.00
2023-04-01T07:09:32.245Z,2259.00
2023-04-01T07:10:32.223Z,2063.00
2023-04-01T07:11:32.219Z,2028.00
2023-04-01T07:12:32.220Z,2197.00
2023-04-01T07:13:32.208Z,2219.00
2023-04-01T07:14:32.233Z,2099.00
2023-04-01T07:15:32.472Z,2173.00
2023-04-01T07:16:32.266Z,2170.00
2023-04-01T07:17:32.273Z,2147.00
2023-04-01T07:18:32.281Z,2222.00
2023-04-01T07:19:32.253Z,2205.00
2023-04-01T07:20:32.288Z,2357.00
2023-04-01T07:21:33.593Z,2440.00
2023-04-01T07:22:32.507Z,2497.00
2023-04-01T07:23:32.285Z,2499.00
2023-04-01T07:24:32.309Z,2320.00
2023-04-01T07:25:32.678Z,2290.00
2023-04-01T07:26:32.349Z,2507.00
2023-04-01T07:27:32.327Z,2438.00
2023-04-01T07:28:32.348Z,2377.00
2023-04-01T07:29:32.338Z,2404.00
2023-04-01T07:30:32.330Z,2334.00
2023-04-01T07:31:32.433Z,2296.00
2023-04-01T07:32:34.176Z,2541.00
2023-04-01T07:33:32.387Z,2641.00
2023-04-01T07:34:32.430Z,2683.00
2023-04-01T07:35:32.731Z,2763.00
2023-04-01T07:36:32.412Z,2816.00
2023-04-01T07:37:32.417Z,2937.00
2023-04-01T07:38:32.450Z,3154.00
2023-04-01T07:39:32.419Z,3237.00
2023-04-01T07:40:32.425Z,3342.00
2023-04-01T07:41:32.455Z,3387.00
2023-04-01T07:42:32.471Z,3211.00
2023-04-01T07:43:32.479Z,3123.00
2023-04-01T07:44:32.466Z,3237.00
2023-04-01T07:45:32.699Z,3360.00
2023-04-01T07:46:32.484Z,3390.00
2023-04-01T07:47:32.473Z,3426.00
2023-04-01T07:48:32.541Z,3508.00
2023-04-01T07:49:32.482Z,3566.00
2023-04-01T07:50:32.501Z,3768.00
2023-04-01T07:51:32.483Z,3931.00
2023-04-01T07:52:32.518Z,4154.00
2023-04-01T07:53:32.562Z,4257.00
2023-04-01T07:54:32.543Z,4102.00
2023-04-01T07:55:32.840Z,3985.00
2023-04-01T07:56:32.530Z,4117.00
2023-04-01T07:57:32.615Z,4073.00
2023-04-01T07:58:32.631Z,3926.00
2023-04-01T07:59:32.559Z,4056.00
2023-04-01T08:00:32.578Z,3832.00
2023-04-01T08:01:32.604Z,3889.00
2023-04-01T08:02:32.681Z,3794.00
2023-04-01T08:03:32.747Z,3631.00
2023-04-01T08:04:32.670Z,3483.00
2023-04-01T08:05:32.773Z,3734.00
2023-04-01T08:06:32.610Z,3705.00
2023-04-01T08:07:32.592Z,3783.00
2023-04-01T08:08:32.634Z,3514.00
2023-04-01T08:09:32.625Z,3673.00
2023-04-01T08:10:32.666Z,3689.00
2023-04-01T08:11:32.653Z,3811.00
2023-04-01T08:12:32.634Z,3847.00
2023-04-01T08:13:32.679Z,3651.00
2023-04-01T08:14:32.658Z,3611.00
2023-04-01T08:15:32.989Z,3804.00
2023-04-01T08:16:32.693Z,3751.00
2023-04-01T08:17:32.693Z,3668.00
2023-04-01T08:18:32.732Z,3701.00
2023-04-01T08:19:32.723Z,3790.00
2023-04-01T08:20:32.733Z,3878.00
2023-04-01T08:21:32.714Z,3888.00
2023-04-01T08:22:32.778Z,4032.00
2023-04-01T08:23:32.777Z,4213.00
2023-04-01T08:24:44.274Z,4260.00
2023-04-01T08:25:32.962Z,4330.00
2023-04-01T08:26:32.785Z,4595.00
2023-04-01T08:27:32.806Z,5078.00
2023-04-01T08:28:32.813Z,5293.00
2023-04-01T08:29:32.791Z,5172.00
2023-04-01T08:30:32.813Z,5309.00
2023-04-01T08:31:32.864Z,5313.00
2023-04-01T08:32:32.909Z,5224.00
2023-04-01T08:33:32.905Z,5168.00
2023-04-01T08:34:32.877Z,5106.00
2023-04-01T08:35:33.873Z,4606.00
2023-04-01T08:36:32.948Z,4385.00
2023-04-01T08:37:32.897Z,3979.00
2023-04-01T08:38:32.923Z,3737.00
2023-04-01T08:39:32.931Z,3560.00
2023-04-01T08:40:32.908Z,3218.00
2023-04-01T08:41:32.894Z,2982.00
2023-04-01T08:42:32.925Z,2744.00
2023-04-01T08:43:32.926Z,2698.00
2023-04-01T08:44:32.954Z,2629.00
2023-04-01T08:45:33.257Z,2420.00
2023-04-01T08:46:32.979Z,2392.00
2023-04-01T08:47:33.064Z,2415.00
2023-04-01T08:48:33.034Z,2381.00
2023-04-01T08:49:33.026Z,2310.00
2023-04-01T08:50:33.060Z,2524.00
2023-04-01T08:51:33.032Z,3119.00
2023-04-01T08:52:33.069Z,3307.00
2023-04-01T08:53:33.079Z,3267.00
2023-04-01T08:54:33.079Z,3623.00
2023-04-01T08:55:33.240Z,4118.00
2023-04-01T08:56:33.081Z,4477.00
2023-04-01T08:57:33.339Z,4285.00
2023-04-01T08:58:33.106Z,4504.00
2023-04-01T08:59:33.131Z,4763.00
2023-04-01T09:00:33.132Z,4830.00
2023-04-01T09:01:33.105Z,4768.00
2023-04-01T09:02:33.244Z,4661.00
2023-04-01T09:03:33.340Z,4381.00
2023-04-01T09:04:33.305Z,4267.00
2023-04-01T09:05:33.364Z,4060.00
2023-04-01T09:06:33.209Z,3832.00
2023-04-01T09:07:33.236Z,3865.00
2023-04-01T09:08:33.258Z,3769.00
2023-04-01T09:09:33.274Z,3840.00
2023-04-01T09:10:33.321Z,3773.00
2023-04-01T09:11:33.336Z,3908.00
2023-04-01T09:12:33.327Z,3844.00
2023-04-01T09:13:33.323Z,4014.00
2023-04-01T09:14:33.327Z,3995.00
2023-04-01T09:15:33.719Z,4008.00
2023-04-01T09:16:33.438Z,4212.00
2023-04-01T09:17:33.422Z,4469.00
2023-04-01T09:18:33.607Z,4609.00
2023-04-01T09:19:33.359Z,4490.00
2023-04-01T09:20:33.394Z,4607.00
2023-04-01T09:21:33.415Z,4734.00
2023-04-01T09:22:33.455Z,4762.00
2023-04-01T09:23:33.461Z,4740.00
2023-04-01T09:24:33.436Z,4714.00
2023-04-01T09:25:33.662Z,4569.00
2023-04-01T09:26:33.519Z,4512.00
2023-04-01T09:27:33.526Z,4496.00
2023-04-01T09:28:33.541Z,4475.00
2023-04-01T09:29:33.547Z,4651.00
2023-04-01T09:30:33.544Z,4664.00
2023-04-01T09:31:33.617Z,4648.00
2023-04-01T09:32:33.564Z,4492.00
2023-04-01T09:33:33.571Z,4542.00
2023-04-01T09:34:33.593Z,4669.00
2023-04-01T09:35:33.668Z,4785.00
2023-04-01T09:36:33.545Z,4923.00
2023-04-01T09:37:33.584Z,5044.00
2023-04-01T09:38:33.591Z,4938.00
2023-04-01T09:39:33.562Z,5149.00
2023-04-01T09:40:33.572Z,5217.00
2023-04-01T09:41:33.605Z,5317.00
2023-04-01T09:42:33.661Z,5529.00
2023-04-01T09:43:33.593Z,5610.00
2023-04-01T09:44:33.603Z,6003.00
2023-04-01T09:45:33.955Z,6231.00
2023-04-01T09:46:33.701Z,6129.00
2023-04-01T09:47:33.724Z,6021.00
2023-04-01T09:48:33.687Z,6169.00
2023-04-01T09:49:33.675Z,6351.00
2023-04-01T09:50:33.708Z,6264.00
2023-04-01T09:51:33.735Z,6130.00
2023-04-01T09:52:33.760Z,5822.00
2023-04-01T09:53:33.753Z,5507.00
2023-04-01T09:54:33.739Z,5460.00
2023-04-01T09:55:34.008Z,5497.00
2023-04-01T09:56:34.313Z,5249.00
2023-04-01T09:57:33.864Z,5393.00
2023-04-01T09:58:33.814Z,5677.00
2023-04-01T09:59:33.785Z,5661.00
2023-04-01T10:00:33.805Z,5935.00
2023-04-01T10:01:33.878Z,5961.00
2023-04-01T10:02:33.917Z,5695.00
2023-04-01T10:03:33.860Z,5367.00
2023-04-01T10:04:33.897Z,5970.00
2023-04-01T10:05:34.168Z,5709.00
2023-04-01T10:06:33.869Z,5463.00
2023-04-01T10:07:33.935Z,6061.00
2023-04-01T10:08:33.915Z,6452.00
2023-04-01T10:09:33.907Z,6611.00
2023-04-01T10:10:33.894Z,6760.00
2023-04-01T10:11:33.931Z,6617.00
2023-04-01T10:12:33.919Z,6634.00
2023-04-01T10:13:33.913Z,6459.00
2023-04-01T10:14:33.961Z,6516.00
2023-04-01T10:15:34.156Z,6667.00
2023-04-01T10:16:33.971Z,6666.00
2023-04-01T10:17:34.016Z,6480.00
2023-04-01T10:18:33.954Z,6269.00
2023-04-01T10:19:33.980Z,6423.00
2023-04-01T10:20:34.006Z,6121.00
2023-04-01T10:21:34.004Z,6025.00
2023-04-01T10:22:34.006Z,5986.00
2023-04-01T10:23:33.988Z,5938.00
2023-04-01T10:24:33.981Z,5987.00
2023-04-01T10:25:34.246Z,5802.00
2023-04-01T10:26:33.988Z,5581.00
2023-04-01T10:27:34.005Z,5595.00
2023-04-01T10:28:33.990Z,5704.00
2023-04-01T10:29:34.012Z,5503.00
2023-04-01T10:30:34.030Z,5099.00
2023-04-01T10:31:34.169Z,5435.00
2023-04-01T10:32:34.116Z,5499.00
2023-04-01T10:33:34.055Z,5753.00
2023-04-01T10:34:34.085Z,6013.00
2023-04-01T10:35:34.372Z,6033.00
2023-04-01T10:36:34.125Z,6584.00
2023-04-01T10:37:34.158Z,6539.00
2023-04-01T10:38:34.177Z,6223.00
2023-04-01T10:39:34.177Z,5944.00
2023-04-01T10:40:34.177Z,5561.00
2023-04-01T10:41:34.158Z,5189.00
2023-04-01T10:42:34.190Z,5447.00
2023-04-01T10:43:34.170Z,5134.00
2023-04-01T10:44:34.194Z,4939.00
2023-04-01T10:45:34.505Z,4423.00
2023-04-01T10:46:34.335Z,4308.00
2023-04-01T10:47:34.246Z,3987.00
2023-04-01T10:48:34.241Z,4230.00
2023-04-01T10:49:34.258Z,4177.00
2023-04-01T10:50:34.279Z,4434.00
2023-04-01T10:51:34.263Z,5025.00
2023-04-01T10:52:34.284Z,4948.00
2023-04-01T10:53:34.260Z,4473.00
2023-04-01T10:54:34.250Z,4504.00
2023-04-01T10:55:34.540Z,5135.00
2023-04-01T10:56:34.258Z,5422.00
2023-04-01T10:57:34.298Z,5307.00
2023-04-01T10:58:34.273Z,5506.00
2023-04-01T10:59:34.270Z,5747.00
2023-04-01T11:00:34.272Z,5474.00
2023-04-01T11:01:34.359Z,5139.00
2023-04-01T11:02:34.352Z,5334.00
2023-04-01T11:03:34.379Z,5462.00
2023-04-01T11:04:34.319Z,5006.00
2023-04-01T11:05:34.565Z,4631.00
2023-04-01T11:06:34.344Z,4526.00
2023-04-01T11:07:34.317Z,4353.00
2023-04-01T11:08:34.338Z,4950.00
2023-04-01T11:09:34.336Z,5270.00
2023-04-01T11:10:34.312Z,5369.00
2023-04-01T11:11:34.317Z,5003.00
2023-04-01T11:12:34.335Z,4316.00
2023-04-01T11:13:34.362Z,4357.00
2023-04-01T11:14:34.428Z,5176.00
2023-04-01T11:15:34.540Z,4601.00
2023-04-01T11:16:34.404Z,5244.00
2023-04-01T11:17:34.429Z,5293.00
2023-04-01T11:18:34.439Z,4915.00
2023-04-01T11:19:34.428Z,4661.00
2023-04-01T11:20:34.414Z,4342.00
2023-04-01T11:21:34.438Z,3996.00
2023-04-01T11:22:34.457Z,3693.00
2023-04-01T11:23:34.489Z,4054.00
2023-04-01T11:24:34.512Z,3634.00
2023-04-01T11:25:34.762Z,3083.00
2023-04-01T11:26:34.549Z,3191.00
2023-04-01T11:27:34.535Z,4293.00
2023-04-01T11:28:34.561Z,4678.00
2023-04-01T11:29:34.597Z,4980.00
2023-04-01T11:30:34.622Z,4668.00
2023-04-01T11:31:34.684Z,3961.00
2023-04-01T11:32:34.663Z,5035.00
2023-04-01T11:33:34.653Z,5280.00
2023-04-01T11:34:34.682Z,5265.00
2023-04-01T11:35:35.010Z,5703.00
2023-04-01T11:36:34.763Z,5913.00
2023-04-01T11:37:34.757Z,5385.00
2023-04-01T11:38:34.720Z,5088.00
2023-04-01T11:39:34.712Z,4926.00
2023-04-01T11:40:34.700Z,5208.00
2023-04-01T11:41:34.692Z,5017.00
2023-04-01T11:42:34.723Z,4873.00
2023-04-01T11:43:34.702Z,4557.00
2023-04-01T11:44:34.735Z,4707.00
2023-04-01T11:45:35.066Z,4091.00
2023-04-01T11:46:34.787Z,3967.00
2023-04-01T11:47:34.783Z,4150.00
2023-04-01T11:48:34.751Z,3992.00
2023-04-01T11:49:34.735Z,3734.00
2023-04-01T11:50:34.747Z,3534.00
2023-04-01T11:51:34.722Z,3838.00
2023-04-01T11:52:34.735Z,3533.00
2023-04-01T11:53:34.727Z,3435.00
2023-04-01T11:54:34.746Z,3997.00
2023-04-01T11:55:35.159Z,4077.00
2023-04-01T11:56:34.762Z,4817.00
2023-04-01T11:57:34.897Z,5510.00
2023-04-01T11:58:34.802Z,5332.00
2023-04-01T11:59:34.828Z,5627.00
2023-04-01T12:00:34.853Z,5811.00
2023-04-01T12:01:34.830Z,4514.00
2023-04-01T12:02:34.943Z,3892.00
2023-04-01T12:03:35.005Z,3807.00
2023-04-01T12:04:34.923Z,3835.00
2023-04-01T12:05:35.243Z,4184.00
2023-04-01T12:06:34.931Z,4205.00
2023-04-01T12:07:34.919Z,3995.00
2023-04-01T12:08:34.934Z,3910.00
2023-04-01T12:09:34.963Z,4039.00
2023-04-01T12:10:34.984Z,3632.00
2023-04-01T12:11:35.021Z,3165.00
2023-04-01T12:12:34.998Z,3313.00
2023-04-01T12:13:35.023Z,2904.00
2023-04-01T12:14:35.044Z,2501.00
2023-04-01T12:15:35.402Z,2897.00
2023-04-01T12:16:35.098Z,3265.00
2023-04-01T12:17:35.065Z,4309.00
2023-04-01T12:18:35.064Z,4689.00
2023-04-01T12:19:35.052Z,4448.00
2023-04-01T12:20:35.074Z,4426.00
2023-04-01T12:21:35.112Z,4904.00
2023-04-01T12:22:35.162Z,4585.00
2023-04-01T12:23:35.134Z,5167.00
2023-04-01T12:24:35.168Z,4657.00
2023-04-01T12:25:35.369Z,4943.00
2023-04-01T12:26:35.216Z,5470.00
2023-04-01T12:27:35.202Z,4615.00
2023-04-01T12:28:35.229Z,4776.00
2023-04-01T12:29:35.214Z,4159.00
2023-04-01T12:30:35.209Z,4028.00
2023-04-01T12:31:35.279Z,3920.00
2023-04-01T12:32:35.325Z,4464.00
2023-04-01T12:33:36.575Z,4078.00
2023-04-01T12:34:35.267Z,4198.00
2023-04-01T12:35:35.658Z,4698.00